Time;durP1;ratioP1;P1;durP2;ratioP2;P2;SDS_P1;SDS_P2;PMS_P1;PMS_P2;Temp;Humidity;BMP_temperature;BMP_pressure;BME280_temperature;BME280_humidity;BME280_pressure;Samples;Min_cycle;Max_cycle;Signal;HPM_P1;HPM_P2
2022/04/18 00:00:52;;;;;;;;;;;8.80;77.10;;;;;;5035290;28;19964;-76
2022/04/18 00:03:20;;;;;;;;;;;8.80;77.20;;;;;;5023925;28;19965;-78
2022/04/18 00:05:47;;;;;;;;;;;8.80;77.20;;;;;;5026775;28;19947;-78
2022/04/18 00:08:14;;;;;;;;;;;8.80;77.20;;;;;;5029658;28;19925;-78
2022/04/18 00:10:41;;;;;;;;;;;8.70;77.20;;;;;;5032941;28;20422;-78
2022/04/18 00:13:08;;;;;;;;;;;8.70;77.20;;;;;;5042463;28;20008;-76
2022/04/18 00:15:35;;;;;;;;;;;8.70;77.30;;;;;;5029902;28;20460;-78
2022/04/18 00:18:02;;;;;;;;;;;8.60;77.20;;;;;;5028257;28;19925;-79
2022/04/18 00:20:30;;;;;;;;;;;8.60;77.20;;;;;;5026109;28;19925;-78
2022/04/18 00:22:57;;;;;;;;;;;8.60;77.30;;;;;;5029833;28;19937;-78
2022/04/18 00:25:24;;;;;;;;;;;8.60;77.30;;;;;;5026267;28;19932;-79
2022/04/18 00:27:51;;;;;;;;;;;8.60;77.30;;;;;;5025953;28;19926;-77
2022/04/18 00:30:18;;;;;;;;;;;8.60;77.40;;;;;;5023080;28;19925;-78
2022/04/18 00:32:45;;;;;;;;;;;8.60;77.40;;;;;;5030770;28;19993;-78
2022/04/18 00:35:13;;;;;;;;;;;8.50;77.30;;;;;;5027126;28;19945;-78
2022/04/18 00:37:41;;;;;;;;;;;8.50;77.30;;;;;;5018133;28;19926;-78
2022/04/18 00:40:11;;;;;;;;;;;8.50;77.30;;;;;;5025224;28;19924;-77
2022/04/18 00:42:38;;;;;;;;;;;8.50;77.30;;;;;;5027451;28;19925;-78
2022/04/18 00:45:05;;;;;;;;;;;8.40;77.20;;;;;;5021558;28;20427;-78
2022/04/18 00:47:32;;;;;;;;;;;8.40;77.40;;;;;;5032031;28;20618;-77
2022/04/18 00:49:59;;;;;;;;;;;8.40;77.40;;;;;;5030936;28;20391;-78
2022/04/18 00:52:27;;;;;;;;;;;8.40;77.50;;;;;;5020762;28;20024;-78
2022/04/18 00:54:56;;;;;;;;;;;8.40;77.50;;;;;;5016040;28;20019;-75
2022/04/18 00:57:24;;;;;;;;;;;8.30;77.50;;;;;;5021953;28;19933;-78
2022/04/18 00:59:52;;;;;;;;;;;8.40;77.60;;;;;;5030623;28;19947;-77
2022/04/18 01:02:18;;;;;;;;;;;8.30;77.50;;;;;;5024932;28;19932;-77
2022/04/18 01:04:45;;;;;;;;;;;8.30;77.60;;;;;;5030395;28;19947;-78
2022/04/18 01:07:13;;;;;;;;;;;8.30;77.70;;;;;;5025029;28;19926;-78
2022/04/18 01:09:40;;;;;;;;;;;8.30;77.70;;;;;;5031528;28;19986;-77
2022/04/18 01:12:09;;;;;;;;;;;8.20;78.30;;;;;;5024815;28;20014;-78
2022/04/18 01:14:47;;;;;;;;;;;8.20;77.70;;;;;;5097214;23;20196;-83
2022/04/18 01:17:14;;;;;;;;;;;8.20;77.60;;;;;;5039676;28;19932;-82
2022/04/18 01:19:59;;;;;;;;;;;8.20;78.30;;;;;;5030576;28;19929;-83
2022/04/18 01:22:47;;;;;;;;;;;8.20;77.70;;;;;;5017728;28;19925;-83
2022/04/18 01:31:13;;;;;;;;;;;8.10;77.80;;;;;;5014100;28;19953;-83
2022/04/18 01:33:40;;;;;;;;;;;8.10;77.80;;;;;;5017919;28;20011;-83
2022/04/18 01:36:08;;;;;;;;;;;8.10;77.90;;;;;;5019166;28;19985;-83
2022/04/18 01:38:37;;;;;;;;;;;8.00;77.80;;;;;;5017304;28;19933;-84
2022/04/18 01:41:04;;;;;;;;;;;8.10;77.90;;;;;;5017647;28;19945;-83
2022/04/18 01:43:31;;;;;;;;;;;8.00;77.80;;;;;;5018705;28;19930;-82
2022/04/18 01:45:59;;;;;;;;;;;8.00;77.70;;;;;;5009702;28;19936;-84
2022/04/18 01:48:27;;;;;;;;;;;7.90;77.70;;;;;;5016481;28;20320;-83
2022/04/18 01:50:55;;;;;;;;;;;7.90;77.70;;;;;;5015677;28;19925;-84
2022/04/18 01:53:23;;;;;;;;;;;7.90;77.70;;;;;;5018253;28;20044;-83
2022/04/18 01:55:51;;;;;;;;;;;7.90;77.80;;;;;;5017954;28;19926;-82
2022/04/18 01:58:19;;;;;;;;;;;7.90;77.80;;;;;;5018415;28;19926;-84
2022/04/18 02:00:46;;;;;;;;;;;7.90;77.80;;;;;;5027783;28;19932;-83
2022/04/18 02:03:13;;;;;;;;;;;7.80;77.70;;;;;;5023897;28;19932;-83
2022/04/18 02:05:42;;;;;;;;;;;7.80;77.80;;;;;;5015247;28;19949;-83
2022/04/18 02:08:09;;;;;;;;;;;7.80;77.70;;;;;;5014825;28;19926;-83
2022/04/18 02:10:36;;;;;;;;;;;7.80;77.80;;;;;;5017010;28;19925;-83
2022/04/18 02:13:05;;;;;;;;;;;7.80;77.80;;;;;;5017079;28;20020;-83
2022/04/18 02:15:33;;;;;;;;;;;7.80;77.80;;;;;;5022016;28;19996;-84
2022/04/18 02:18:03;;;;;;;;;;;7.70;77.60;;;;;;5020780;28;19925;-83
2022/04/18 02:20:30;;;;;;;;;;;7.70;77.70;;;;;;5014091;28;19926;-83
2022/04/18 02:22:57;;;;;;;;;;;7.70;77.60;;;;;;5017743;28;19940;-84
2022/04/18 02:25:24;;;;;;;;;;;7.70;77.80;;;;;;5023565;28;19963;-83
2022/04/18 02:27:53;;;;;;;;;;;7.70;77.80;;;;;;5016404;28;19932;-85
2022/04/18 02:30:22;;;;;;;;;;;7.60;77.60;;;;;;5022134;28;20399;-84
2022/04/18 02:32:49;;;;;;;;;;;7.60;77.60;;;;;;5023306;28;19932;-84
2022/04/18 02:35:18;;;;;;;;;;;7.60;77.70;;;;;;5021874;28;19932;-83
2022/04/18 02:37:46;;;;;;;;;;;7.60;77.60;;;;;;5017941;28;19998;-83
2022/04/18 02:40:16;;;;;;;;;;;7.60;77.60;;;;;;5020926;28;19929;-84
2022/04/18 02:42:43;;;;;;;;;;;7.50;77.60;;;;;;5030409;28;19925;-84
2022/04/18 02:45:12;;;;;;;;;;;7.50;77.50;;;;;;5020044;28;19949;-83
2022/04/18 02:48:00;;;;;;;;;;;7.50;77.50;;;;;;5015699;28;20451;-84
2022/04/18 02:50:28;;;;;;;;;;;7.50;77.50;;;;;;5019802;28;20538;-83
2022/04/18 02:52:56;;;;;;;;;;;7.50;77.50;;;;;;5019668;28;19926;-83
2022/04/18 02:55:34;;;;;;;;;;;7.40;77.30;;;;;;5028521;28;19925;-84
2022/04/18 02:58:01;;;;;;;;;;;7.40;77.30;;;;;;5020639;28;19925;-83
2022/04/18 03:00:31;;;;;;;;;;;7.40;77.50;;;;;;5035447;28;20126;-84
2022/04/18 03:03:01;;;;;;;;;;;7.40;77.50;;;;;;5012347;28;19929;-83
2022/04/18 03:05:29;;;;;;;;;;;7.40;77.50;;;;;;5022138;28;19929;-83
2022/04/18 03:07:56;;;;;;;;;;;7.40;77.40;;;;;;5019518;28;19956;-83
2022/04/18 03:13:05;;;;;;;;;;;7.30;77.40;;;;;;5014603;28;20001;-83
2022/04/18 03:15:31;;;;;;;;;;;7.30;77.50;;;;;;5014280;28;20028;-84
2022/04/18 03:17:58;;;;;;;;;;;7.30;77.50;;;;;;5024409;28;19925;-84
2022/04/18 03:20:26;;;;;;;;;;;7.30;77.50;;;;;;5017968;28;19929;-84
2022/04/18 03:22:54;;;;;;;;;;;7.30;77.50;;;;;;5018131;28;19929;-84
2022/04/18 03:25:40;;;;;;;;;;;7.30;77.40;;;;;;5009633;28;19933;-85
2022/04/18 03:28:07;;;;;;;;;;;7.20;77.30;;;;;;5017868;28;19929;-83
2022/04/18 03:30:34;;;;;;;;;;;7.20;77.30;;;;;;5021075;28;19936;-83
2022/04/18 03:33:01;;;;;;;;;;;7.20;77.40;;;;;;5020670;28;19925;-83
2022/04/18 03:35:30;;;;;;;;;;;7.20;77.30;;;;;;5017798;28;20036;-84
2022/04/18 03:40:42;;;;;;;;;;;7.20;77.40;;;;;;4997201;28;19953;-83
2022/04/18 03:43:09;;;;;;;;;;;7.10;77.40;;;;;;5026268;28;19940;-84
2022/04/18 03:45:37;;;;;;;;;;;7.10;77.40;;;;;;5034783;28;19928;-85
2022/04/18 03:48:04;;;;;;;;;;;7.10;77.40;;;;;;5028639;28;19953;-83
2022/04/18 03:50:33;;;;;;;;;;;7.10;77.40;;;;;;5013361;28;19936;-84
2022/04/18 03:53:01;;;;;;;;;;;7.10;77.40;;;;;;5017305;28;19925;-83
2022/04/18 03:55:34;;;;;;;;;;;7.00;77.30;;;;;;5040678;28;19936;-84
2022/04/18 03:58:08;;;;;;;;;;;7.00;77.30;;;;;;5013628;28;19929;-84
2022/04/18 04:00:36;;;;;;;;;;;7.00;77.40;;;;;;5017932;28;20411;-84
2022/04/18 04:03:04;;;;;;;;;;;7.00;77.40;;;;;;5021239;28;19926;-84
2022/04/18 04:05:40;;;;;;;;;;;7.00;77.50;;;;;;5020490;28;19936;-84
2022/04/18 04:08:10;;;;;;;;;;;7.10;77.60;;;;;;5011485;28;20020;-83
2022/04/18 04:10:38;;;;;;;;;;;7.00;77.40;;;;;;5016171;28;20012;-83
2022/04/18 04:13:07;;;;;;;;;;;6.90;77.40;;;;;;5009723;28;19947;-82
2022/04/18 04:15:40;;;;;;;;;;;6.90;77.40;;;;;;5021470;28;19925;-84
2022/04/18 04:18:14;;;;;;;;;;;6.90;77.50;;;;;;5013795;28;19961;-83
2022/04/18 04:20:41;;;;;;;;;;;6.90;77.40;;;;;;5016778;28;19925;-84
2022/04/18 04:23:12;;;;;;;;;;;6.80;78.00;;;;;;5012815;28;19925;-83
2022/04/18 04:25:52;;;;;;;;;;;6.90;77.50;;;;;;5014039;28;19929;-84
2022/04/18 04:28:26;;;;;;;;;;;6.80;77.40;;;;;;5015324;28;19936;-83
2022/04/18 04:30:53;;;;;;;;;;;6.80;77.30;;;;;;5019530;28;20015;-83
2022/04/18 04:33:20;;;;;;;;;;;6.80;77.40;;;;;;5020051;28;19989;-85
2022/04/18 04:35:50;;;;;;;;;;;6.80;77.40;;;;;;5022332;28;20642;-83
2022/04/18 04:38:21;;;;;;;;;;;6.80;78.10;;;;;;5015791;28;19930;-83
2022/04/18 04:40:53;;;;;;;;;;;6.70;77.30;;;;;;5020816;28;19926;-84
2022/04/18 04:43:42;;;;;;;;;;;6.70;77.40;;;;;;5020844;28;20012;-84
2022/04/18 04:46:13;;;;;;;;;;;6.70;77.40;;;;;;5019153;28;19992;-84
2022/04/18 04:48:52;;;;;;;;;;;6.70;77.50;;;;;;5020738;28;19956;-83
2022/04/18 04:51:21;;;;;;;;;;;6.70;77.50;;;;;;5018690;28;19952;-84
2022/04/18 04:53:50;;;;;;;;;;;6.70;77.50;;;;;;5021123;28;19947;-83
2022/04/18 04:56:28;;;;;;;;;;;6.60;77.50;;;;;;5008024;28;20021;-83
2022/04/18 04:58:56;;;;;;;;;;;6.60;77.50;;;;;;5015770;28;19984;-84
2022/04/18 05:01:25;;;;;;;;;;;6.60;77.60;;;;;;5014562;28;19926;-84
2022/04/18 05:04:09;;;;;;;;;;;6.60;77.50;;;;;;5010782;28;19980;-84
2022/04/18 05:06:36;;;;;;;;;;;6.40;77.20;;;;;;5018777;28;19934;-83
2022/04/18 05:09:09;;;;;;;;;;;6.30;77.70;;;;;;5018306;28;19930;-84
2022/04/18 05:11:37;;;;;;;;;;;6.20;77.80;;;;;;5022473;28;19929;-84
2022/04/18 05:14:04;;;;;;;;;;;6.10;78.10;;;;;;5017466;28;20439;-83
2022/04/18 05:16:54;;;;;;;;;;;6.20;78.00;;;;;;5008925;28;19937;-85
2022/04/18 05:19:39;;;;;;;;;;;6.10;78.00;;;;;;5014518;28;19925;-84
2022/04/18 05:22:26;;;;;;;;;;;6.00;78.20;;;;;;5008550;28;20006;-85
2022/04/18 05:24:55;;;;;;;;;;;6.00;78.30;;;;;;5025342;28;19937;-84
2022/04/18 05:27:36;;;;;;;;;;;5.90;78.40;;;;;;5031355;28;19929;-83
2022/04/18 05:30:08;;;;;;;;;;;5.80;78.50;;;;;;5031997;28;19940;-83
2022/04/18 05:32:36;;;;;;;;;;;5.80;78.60;;;;;;5017905;28;19925;-85
2022/04/18 05:35:08;;;;;;;;;;;5.80;78.50;;;;;;5018502;28;19932;-85
2022/04/18 05:37:35;;;;;;;;;;;5.80;78.60;;;;;;5018288;28;19960;-84
2022/04/18 05:40:27;;;;;;;;;;;5.80;78.80;;;;;;5006659;28;19953;-83
2022/04/18 05:42:55;;;;;;;;;;;5.80;78.80;;;;;;5018274;28;19961;-84
2022/04/18 05:45:22;;;;;;;;;;;5.80;79.00;;;;;;5019529;28;19926;-83
2022/04/18 05:47:59;;;;;;;;;;;5.80;79.10;;;;;;5012976;28;20309;-84
2022/04/18 05:50:27;;;;;;;;;;;5.70;79.30;;;;;;5025067;28;19934;-83
2022/04/18 05:53:13;;;;;;;;;;;5.70;79.70;;;;;;5020087;28;19926;-84
2022/04/18 05:56:04;;;;;;;;;;;5.70;79.90;;;;;;5021543;28;20521;-83
2022/04/18 05:58:44;;;;;;;;;;;5.70;80.10;;;;;;5020998;28;20016;-86
2022/04/18 06:01:37;;;;;;;;;;;5.80;80.30;;;;;;5008756;28;20471;-85
2022/04/18 06:04:36;;;;;;;;;;;5.70;80.30;;;;;;5010953;28;19926;-88
2022/04/18 06:07:18;;;;;;;;;;;5.80;80.40;;;;;;5021440;28;19926;-87
2022/04/18 06:09:52;;;;;;;;;;;5.80;80.50;;;;;;5012764;28;19953;-85
2022/04/18 06:12:21;;;;;;;;;;;5.80;80.50;;;;;;5021198;28;19932;-85
2022/04/18 06:14:49;;;;;;;;;;;5.80;80.60;;;;;;5015522;28;20330;-86
2022/04/18 06:17:17;;;;;;;;;;;5.80;80.50;;;;;;5014005;28;19952;-87
2022/04/18 06:19:44;;;;;;;;;;;5.80;80.60;;;;;;5021233;28;19930;-85
2022/04/18 06:22:12;;;;;;;;;;;5.90;80.70;;;;;;5013904;28;19926;-85
2022/04/18 06:24:39;;;;;;;;;;;5.90;80.70;;;;;;5020645;28;19961;-86
2022/04/18 06:27:15;;;;;;;;;;;5.90;80.70;;;;;;5016287;28;19940;-84
2022/04/18 06:29:45;;;;;;;;;;;6.00;81.00;;;;;;5012056;28;20230;-85
2022/04/18 06:32:12;;;;;;;;;;;6.00;81.00;;;;;;5011289;28;20460;-86
2022/04/18 06:34:39;;;;;;;;;;;6.10;81.00;;;;;;5021999;28;19932;-85
2022/04/18 06:37:11;;;;;;;;;;;6.20;81.20;;;;;;5026122;28;19926;-84
2022/04/18 06:39:45;;;;;;;;;;;6.10;81.10;;;;;;5016089;28;20001;-85
2022/04/18 06:42:21;;;;;;;;;;;6.10;81.20;;;;;;5015826;28;19929;-85
2022/04/18 06:44:53;;;;;;;;;;;6.20;81.40;;;;;;5015675;28;19934;-84
2022/04/18 06:47:20;;;;;;;;;;;6.20;81.30;;;;;;5020691;28;20000;-85
2022/04/18 06:50:10;;;;;;;;;;;6.20;81.30;;;;;;5021550;28;19953;-86
2022/04/18 06:52:55;;;;;;;;;;;6.20;81.40;;;;;;5019571;28;19992;-85
2022/04/18 06:58:16;;;;;;;;;;;6.30;81.50;;;;;;5019865;28;20396;-85
2022/04/18 07:00:45;;;;;;;;;;;6.30;81.50;;;;;;5014733;28;19929;-84
2022/04/18 07:03:14;;;;;;;;;;;6.40;81.50;;;;;;5013972;28;19932;-85
2022/04/18 07:05:41;;;;;;;;;;;6.40;81.60;;;;;;5018915;28;19933;-84
2022/04/18 07:08:09;;;;;;;;;;;6.40;81.60;;;;;;5012082;28;19968;-85
2022/04/18 07:10:36;;;;;;;;;;;6.40;81.50;;;;;;5009900;28;20001;-85
2022/04/18 07:13:03;;;;;;;;;;;6.40;82.10;;;;;;5020191;28;19930;-85
2022/04/18 07:15:30;;;;;;;;;;;6.50;81.60;;;;;;5019804;28;19932;-85
2022/04/18 07:18:03;;;;;;;;;;;6.50;81.70;;;;;;5021677;28;19930;-84
2022/04/18 07:20:30;;;;;;;;;;;6.50;81.70;;;;;;5015540;28;20189;-84
2022/04/18 07:22:57;;;;;;;;;;;6.50;81.70;;;;;;5013038;28;19933;-85
2022/04/18 07:25:29;;;;;;;;;;;6.50;81.70;;;;;;5028040;22;19910;-85
2022/04/18 07:28:17;;;;;;;;;;;6.50;81.70;;;;;;5024292;28;19932;-84
2022/04/18 07:30:44;;;;;;;;;;;6.60;81.90;;;;;;5010635;28;19979;-83
2022/04/18 07:33:14;;;;;;;;;;;6.60;81.90;;;;;;5006464;28;20621;-82
2022/04/18 07:35:41;;;;;;;;;;;6.60;81.90;;;;;;4999803;28;19937;-82
2022/04/18 07:40:56;;;;;;;;;;;6.60;82.10;;;;;;5016967;28;19921;-82
2022/04/18 07:43:26;;;;;;;;;;;6.60;82.00;;;;;;5022104;28;19996;-82
2022/04/18 07:45:53;;;;;;;;;;;6.60;82.10;;;;;;5001886;28;19972;-84
2022/04/18 07:48:22;;;;;;;;;;;6.60;82.10;;;;;;5009989;28;20016;-82
2022/04/18 07:53:34;;;;;;;;;;;6.60;82.10;;;;;;5005576;28;19988;-83
2022/04/18 07:56:01;;;;;;;;;;;6.60;82.00;;;;;;5010544;28;20390;-85
2022/04/18 07:58:31;;;;;;;;;;;6.60;82.10;;;;;;5003060;28;19966;-84
2022/04/18 08:00:59;;;;;;;;;;;6.60;82.20;;;;;;5013225;28;19949;-82
2022/04/18 08:03:27;;;;;;;;;;;6.60;82.40;;;;;;5007169;28;20396;-82
2022/04/18 08:05:57;;;;;;;;;;;6.70;82.40;;;;;;5018427;28;19932;-82
2022/04/18 08:08:31;;;;;;;;;;;6.70;82.50;;;;;;5007444;28;20628;-82
2022/04/18 08:10:59;;;;;;;;;;;6.70;82.60;;;;;;5024068;28;20012;-82
2022/04/18 08:13:27;;;;;;;;;;;6.70;82.70;;;;;;5006747;28;20380;-82
2022/04/18 08:16:03;;;;;;;;;;;6.70;82.70;;;;;;5004526;28;19934;-82
2022/04/18 08:18:47;;;;;;;;;;;6.70;82.90;;;;;;5002892;28;19984;-83
2022/04/18 08:21:24;;;;;;;;;;;6.70;82.80;;;;;;5023095;28;20017;-82
2022/04/18 08:23:51;;;;;;;;;;;6.70;83.50;;;;;;5004060;28;22104;-81
2022/04/18 08:26:37;;;;;;;;;;;6.80;83.10;;;;;;5004109;28;19932;-82
2022/04/18 08:29:26;;;;;;;;;;;6.70;83.00;;;;;;5008514;28;19991;-83
2022/04/18 08:32:13;;;;;;;;;;;6.80;83.20;;;;;;4999523;28;19929;-83
2022/04/18 08:34:42;;;;;;;;;;;6.80;83.20;;;;;;5011447;28;19926;-82
2022/04/18 08:37:13;;;;;;;;;;;6.80;83.40;;;;;;5010696;28;19932;-82
2022/04/18 08:40:08;;;;;;;;;;;6.80;83.40;;;;;;4995721;28;20323;-82
2022/04/18 08:42:36;;;;;;;;;;;6.80;83.50;;;;;;5013318;28;19988;-85
2022/04/18 08:45:05;;;;;;;;;;;6.90;83.60;;;;;;5012464;28;19945;-84
2022/04/18 08:53:03;;;;;;;;;;;6.90;83.70;;;;;;5010342;28;19933;-83
2022/04/18 08:55:41;;;;;;;;;;;7.00;83.70;;;;;;5009443;28;19933;-82
2022/04/18 08:58:30;;;;;;;;;;;6.90;83.70;;;;;;5010401;28;20015;-82
2022/04/18 09:00:59;;;;;;;;;;;6.90;83.70;;;;;;5019324;28;19976;-83
2022/04/18 09:03:46;;;;;;;;;;;6.90;83.70;;;;;;4998393;28;19972;-82
2022/04/18 09:06:15;;;;;;;;;;;7.00;83.80;;;;;;5015389;28;19926;-82
2022/04/18 09:08:51;;;;;;;;;;;7.00;83.80;;;;;;5011918;28;19976;-85
2022/04/18 09:11:26;;;;;;;;;;;7.00;84.00;;;;;;5028865;28;19925;-83
2022/04/18 09:13:57;;;;;;;;;;;7.00;83.90;;;;;;5013825;28;20400;-82
2022/04/18 09:16:28;;;;;;;;;;;7.00;83.90;;;;;;5012006;28;19933;-82
2022/04/18 09:19:05;;;;;;;;;;;7.00;83.80;;;;;;5026778;28;19933;-84
2022/04/18 09:21:33;;;;;;;;;;;7.10;83.80;;;;;;5001091;28;20315;-86
2022/04/18 09:24:00;;;;;;;;;;;7.10;83.40;;;;;;5023533;28;19926;-85
2022/04/18 09:26:32;;;;;;;;;;;7.10;83.40;;;;;;5024189;28;19929;-83
2022/04/18 09:29:05;;;;;;;;;;;7.10;83.50;;;;;;5011411;28;19936;-83
2022/04/18 09:31:39;;;;;;;;;;;7.10;83.70;;;;;;5012374;28;19992;-84
2022/04/18 09:34:18;;;;;;;;;;;7.10;83.70;;;;;;5015393;28;20157;-83
2022/04/18 09:36:46;;;;;;;;;;;7.10;83.90;;;;;;5021251;28;20381;-83
2022/04/18 09:39:22;;;;;;;;;;;7.10;83.80;;;;;;5024940;28;20362;-82
2022/04/18 09:42:08;;;;;;;;;;;7.20;83.70;;;;;;5025948;28;20388;-84
2022/04/18 09:45:01;;;;;;;;;;;7.20;83.40;;;;;;5005671;28;20327;-82
2022/04/18 09:47:34;;;;;;;;;;;7.20;83.40;;;;;;5010289;28;20414;-84
2022/04/18 09:50:58;;;;;;;;;;;7.30;83.40;;;;;;5020545;28;20012;-82
2022/04/18 09:53:04;;;;;;;;;;;7.40;83.40;;;;;;5011348;28;19934;-85
2022/04/18 09:55:31;;;;;;;;;;;7.30;83.50;;;;;;5008651;28;19929;-85
2022/04/18 09:58:01;;;;;;;;;;;7.30;83.60;;;;;;5006428;28;19929;-84
2022/04/18 10:00:29;;;;;;;;;;;7.20;83.60;;;;;;5006754;28;19940;-85
2022/04/18 10:02:56;;;;;;;;;;;7.30;83.70;;;;;;5006045;28;19937;-83
2022/04/18 10:05:23;;;;;;;;;;;7.30;83.60;;;;;;5014783;28;19926;-83
2022/04/18 10:07:51;;;;;;;;;;;7.40;83.50;;;;;;5004504;28;19926;-84
2022/04/18 10:10:20;;;;;;;;;;;7.40;83.40;;;;;;5010247;28;19932;-82
2022/04/18 10:12:47;;;;;;;;;;;7.40;83.30;;;;;;5012307;28;19932;-84
2022/04/18 10:15:14;;;;;;;;;;;7.40;83.20;;;;;;5011004;28;19925;-83
2022/04/18 10:17:42;;;;;;;;;;;7.40;83.60;;;;;;5008763;28;20424;-85
2022/04/18 10:20:14;;;;;;;;;;;7.40;83.30;;;;;;5005216;28;19925;-85
2022/04/18 10:22:56;;;;;;;;;;;7.50;83.20;;;;;;5009815;28;19926;-82
2022/04/18 10:25:33;;;;;;;;;;;7.50;83.10;;;;;;5005251;28;20081;-82
2022/04/18 10:28:05;;;;;;;;;;;7.50;83.00;;;;;;5010227;28;22614;-84
2022/04/18 10:30:36;;;;;;;;;;;7.50;83.00;;;;;;5026793;28;20134;-84
2022/04/18 10:33:04;;;;;;;;;;;7.50;83.40;;;;;;5009242;28;19929;-85
2022/04/18 10:35:31;;;;;;;;;;;7.60;83.10;;;;;;5014055;28;20077;-83
2022/04/18 10:38:02;;;;;;;;;;;7.60;82.90;;;;;;5004099;28;19948;-83
2022/04/18 10:40:38;;;;;;;;;;;7.60;82.70;;;;;;5007293;28;20551;-85
2022/04/18 10:43:07;;;;;;;;;;;7.60;83.40;;;;;;5013368;28;19925;-83
2022/04/18 10:45:34;;;;;;;;;;;7.70;83.10;;;;;;5000913;28;20415;-83
2022/04/18 10:48:02;;;;;;;;;;;7.70;82.80;;;;;;5011306;28;19926;-83
2022/04/18 10:50:33;;;;;;;;;;;7.70;82.70;;;;;;5008166;28;19957;-82
2022/04/18 10:53:08;;;;;;;;;;;7.70;82.80;;;;;;5009866;28;19929;-83
2022/04/18 10:55:36;;;;;;;;;;;7.70;82.90;;;;;;5006977;28;19929;-83
2022/04/18 10:58:10;;;;;;;;;;;7.80;83.00;;;;;;5014319;28;20428;-83
2022/04/18 11:00:46;;;;;;;;;;;7.80;83.30;;;;;;5015739;28;19948;-83
2022/04/18 11:03:13;;;;;;;;;;;7.80;83.30;;;;;;5015925;28;19941;-83
2022/04/18 11:05:40;;;;;;;;;;;7.80;83.40;;;;;;5015726;28;19929;-82
2022/04/18 11:08:22;;;;;;;;;;;7.80;83.30;;;;;;5013656;28;19929;-83
2022/04/18 11:10:50;;;;;;;;;;;7.80;83.10;;;;;;5006154;28;19926;-84
2022/04/18 11:13:18;;;;;;;;;;;7.90;82.60;;;;;;5002182;28;20420;-83
2022/04/18 11:15:45;;;;;;;;;;;7.90;82.90;;;;;;5009393;28;20015;-84
2022/04/18 11:18:27;;;;;;;;;;;7.90;82.90;;;;;;5023762;28;20450;-83
2022/04/18 11:20:54;;;;;;;;;;;7.90;82.90;;;;;;5004201;28;19930;-85
2022/04/18 11:23:22;;;;;;;;;;;8.00;82.40;;;;;;5013292;28;19932;-84
2022/04/18 11:25:51;;;;;;;;;;;8.00;81.90;;;;;;5005085;28;20028;-84
2022/04/18 11:28:18;;;;;;;;;;;8.00;82.10;;;;;;5012096;28;19936;-82
2022/04/18 11:30:45;;;;;;;;;;;8.00;82.30;;;;;;5009984;28;20069;-83
2022/04/18 11:33:12;;;;;;;;;;;8.10;82.40;;;;;;5031203;28;19932;-85
2022/04/18 11:35:39;;;;;;;;;;;8.10;82.30;;;;;;5009067;28;19937;-84
2022/04/18 11:38:08;;;;;;;;;;;8.10;82.40;;;;;;5030425;28;19926;-83
2022/04/18 11:40:36;;;;;;;;;;;8.10;82.10;;;;;;5008081;28;20556;-82
2022/04/18 11:43:11;;;;;;;;;;;8.10;82.20;;;;;;5013045;28;19940;-85
2022/04/18 11:45:37;;;;;;;;;;;8.20;81.60;;;;;;5009789;28;19936;-84
2022/04/18 11:48:04;;;;;;;;;;;8.20;81.60;;;;;;5017171;28;19949;-83
2022/04/18 11:50:36;;;;;;;;;;;8.20;81.70;;;;;;5011990;28;20135;-85
2022/04/18 11:53:04;;;;;;;;;;;8.20;81.90;;;;;;5012895;28;20032;-83
2022/04/18 11:55:31;;;;;;;;;;;8.20;81.50;;;;;;5015300;28;20296;-85
2022/04/18 11:57:58;;;;;;;;;;;8.20;81.60;;;;;;5012503;28;19926;-84
2022/04/18 12:08:43;;;;;;;;;;;8.40;81.30;;;;;;5012376;28;19944;-84
2022/04/18 12:11:10;;;;;;;;;;;8.40;81.50;;;;;;5008074;28;19925;-83
2022/04/18 12:13:40;;;;;;;;;;;8.40;81.00;;;;;;5014626;28;19931;-84
2022/04/18 12:16:09;;;;;;;;;;;8.50;80.80;;;;;;5010287;28;19925;-83
2022/04/18 12:18:35;;;;;;;;;;;8.50;80.90;;;;;;5011870;28;19964;-83
2022/04/18 12:21:02;;;;;;;;;;;8.50;80.60;;;;;;5008720;28;19925;-84
2022/04/18 12:23:29;;;;;;;;;;;8.50;80.60;;;;;;5007609;28;19925;-82
2022/04/18 12:25:57;;;;;;;;;;;8.60;80.60;;;;;;5005557;28;19925;-84
2022/04/18 12:28:24;;;;;;;;;;;8.60;80.90;;;;;;5007776;28;19929;-85
2022/04/18 12:30:51;;;;;;;;;;;8.60;81.40;;;;;;5007098;28;20307;-83
2022/04/18 12:33:21;;;;;;;;;;;8.60;82.00;;;;;;5010177;28;19925;-84
2022/04/18 12:35:48;;;;;;;;;;;8.60;81.60;;;;;;5012566;28;19925;-82
2022/04/18 12:38:16;;;;;;;;;;;8.60;81.40;;;;;;5000517;28;19932;-82
2022/04/18 12:40:43;;;;;;;;;;;8.70;81.70;;;;;;5005752;28;20384;-85
2022/04/18 12:43:11;;;;;;;;;;;8.70;81.50;;;;;;5001200;28;20035;-83
2022/04/18 12:45:45;;;;;;;;;;;8.80;81.90;;;;;;5002812;28;19929;-82
2022/04/18 12:48:12;;;;;;;;;;;8.80;82.30;;;;;;4999140;28;20035;-83
2022/04/18 12:50:40;;;;;;;;;;;8.80;82.30;;;;;;5018239;28;19980;-84
2022/04/18 12:53:07;;;;;;;;;;;8.90;82.40;;;;;;5006536;28;19925;-83
2022/04/18 12:55:34;;;;;;;;;;;8.90;82.70;;;;;;4997854;28;19925;-84
2022/04/18 12:58:01;;;;;;;;;;;9.00;82.90;;;;;;5003060;28;19930;-83
2022/04/18 13:00:38;;;;;;;;;;;9.00;82.80;;;;;;5008328;28;19941;-83
2022/04/18 13:03:05;;;;;;;;;;;9.00;83.10;;;;;;5010307;28;19926;-83
2022/04/18 13:05:34;;;;;;;;;;;9.10;83.10;;;;;;5001699;28;19972;-83
2022/04/18 13:08:03;;;;;;;;;;;9.10;83.20;;;;;;5004973;28;20027;-85
2022/04/18 13:10:31;;;;;;;;;;;9.20;83.20;;;;;;5005884;28;20214;-83
2022/04/18 13:12:59;;;;;;;;;;;9.20;83.10;;;;;;5014251;28;19933;-83
2022/04/18 13:15:26;;;;;;;;;;;9.30;83.10;;;;;;5006899;28;19961;-84
2022/04/18 13:17:56;;;;;;;;;;;9.30;82.90;;;;;;5007863;28;19925;-83
2022/04/18 13:20:24;;;;;;;;;;;9.30;83.00;;;;;;5003438;28;20187;-86
2022/04/18 13:22:51;;;;;;;;;;;9.40;83.10;;;;;;5002934;28;19968;-83
2022/04/18 13:25:19;;;;;;;;;;;9.40;83.10;;;;;;5003873;28;19926;-83
2022/04/18 13:27:46;;;;;;;;;;;9.50;83.40;;;;;;5002426;28;19925;-83
2022/04/18 13:30:13;;;;;;;;;;;9.50;83.40;;;;;;5007316;28;20418;-84
2022/04/18 13:32:40;;;;;;;;;;;9.60;83.40;;;;;;5009468;28;19945;-84
2022/04/18 13:35:07;;;;;;;;;;;9.60;83.60;;;;;;5001760;28;20014;-84
2022/04/18 13:37:34;;;;;;;;;;;9.70;84.00;;;;;;5003500;28;19930;-84
2022/04/18 13:40:02;;;;;;;;;;;9.70;84.10;;;;;;5032006;22;19937;-77
2022/04/18 13:42:30;;;;;;;;;;;9.80;84.10;;;;;;5027548;28;19925;-77
2022/04/18 13:44:57;;;;;;;;;;;9.80;84.10;;;;;;5023515;28;20388;-77
2022/04/18 13:47:24;;;;;;;;;;;9.90;84.10;;;;;;5023217;28;20563;-77
2022/04/18 13:49:51;;;;;;;;;;;10.00;83.40;;;;;;5002219;28;19929;-77
2022/04/18 13:52:18;;;;;;;;;;;10.00;83.50;;;;;;5000620;28;20410;-78
2022/04/18 13:54:45;;;;;;;;;;;10.00;83.40;;;;;;5007488;28;19945;-77
2022/04/18 13:57:12;;;;;;;;;;;10.00;83.20;;;;;;5008668;28;19991;-79
2022/04/18 13:59:41;;;;;;;;;;;10.20;83.50;;;;;;5005605;28;19976;-77
2022/04/18 14:02:08;;;;;;;;;;;10.20;83.80;;;;;;5004658;28;20004;-78
2022/04/18 14:04:35;;;;;;;;;;;10.30;84.00;;;;;;5001481;28;20380;-77
2022/04/18 14:07:02;;;;;;;;;;;10.30;83.80;;;;;;4999982;28;20024;-77
2022/04/18 14:09:30;;;;;;;;;;;10.30;83.60;;;;;;4999819;28;20304;-77
2022/04/18 14:11:57;;;;;;;;;;;10.40;83.70;;;;;;5011576;28;19930;-78
2022/04/18 14:22:38;;;;;;;;;;;10.60;84.30;;;;;;5004303;28;19921;-77
2022/04/18 14:25:05;;;;;;;;;;;10.70;84.30;;;;;;5013269;28;20033;-80
2022/04/18 14:27:32;;;;;;;;;;;10.80;84.60;;;;;;5002206;28;20458;-77
2022/04/18 14:29:59;;;;;;;;;;;10.80;84.80;;;;;;5009654;28;19926;-78
2022/04/18 14:32:27;;;;;;;;;;;10.90;85.00;;;;;;5010479;28;19981;-78
2022/04/18 14:34:54;;;;;;;;;;;10.90;84.90;;;;;;5012932;28;19929;-77
2022/04/18 14:37:24;;;;;;;;;;;11.00;85.00;;;;;;5011779;28;19926;-78
2022/04/18 14:39:51;;;;;;;;;;;11.10;85.30;;;;;;5010392;28;19925;-77
2022/04/18 14:42:18;;;;;;;;;;;11.10;85.30;;;;;;5003376;28;19934;-78
2022/04/18 14:44:44;;;;;;;;;;;11.10;85.30;;;;;;5011902;28;20471;-77
2022/04/18 14:47:11;;;;;;;;;;;11.20;85.20;;;;;;5013274;28;19926;-77
2022/04/18 14:49:39;;;;;;;;;;;11.20;85.20;;;;;;5005866;28;19973;-77
2022/04/18 14:52:09;;;;;;;;;;;11.30;84.90;;;;;;5006634;28;19926;-77
2022/04/18 14:54:36;;;;;;;;;;;11.30;85.00;;;;;;5012038;28;19936;-78
2022/04/18 14:57:03;;;;;;;;;;;11.40;85.10;;;;;;5012458;28;19925;-77
2022/04/18 14:59:30;;;;;;;;;;;11.50;85.00;;;;;;5009876;28;20376;-77
2022/04/18 15:01:57;;;;;;;;;;;11.50;85.20;;;;;;5011991;28;19971;-77
2022/04/18 15:04:24;;;;;;;;;;;11.50;84.70;;;;;;5000963;28;19930;-78
2022/04/18 15:06:52;;;;;;;;;;;11.60;84.80;;;;;;5006402;28;19925;-79
2022/04/18 15:09:19;;;;;;;;;;;11.60;84.60;;;;;;5010426;28;19925;-77
2022/04/18 15:11:46;;;;;;;;;;;11.70;84.80;;;;;;5010628;28;20022;-78
2022/04/18 15:14:13;;;;;;;;;;;11.70;84.80;;;;;;5002454;28;19957;-78
2022/04/18 15:16:40;;;;;;;;;;;11.80;85.00;;;;;;5014398;28;19925;-77
2022/04/18 15:19:07;;;;;;;;;;;11.90;85.20;;;;;;5009910;28;20502;-77
2022/04/18 15:21:34;;;;;;;;;;;11.90;85.20;;;;;;5008500;28;19938;-82
2022/04/18 15:24:03;;;;;;;;;;;11.90;85.10;;;;;;5005745;28;20016;-77
2022/04/18 15:26:30;;;;;;;;;;;12.00;85.30;;;;;;5006227;28;19961;-77
2022/04/18 15:28:57;;;;;;;;;;;12.00;85.20;;;;;;5003337;28;19964;-77